Time;durP1;ratioP1;P1;durP2;ratioP2;P2;SDS_P1;SDS_P2;PMS_P1;PMS_P2;Temp;Humidity;BMP_temperature;BMP_pressure;BME280_temperature;BME280_humidity;BME280_pressure;Samples;Min_cycle;Max_cycle;Signal;HPM_P1;HPM_P2
2021/11/27 00:00:32;;;;;;;1.57;0.73;;;8.60;85.40;;;;;;5050460;28;20187;-69
2021/11/27 00:02:59;;;;;;;0.50;0.50;;;8.60;85.40;;;;;;5047053;28;20226;-69
2021/11/27 00:05:26;;;;;;;0.60;0.60;;;8.60;85.30;;;;;;5049269;28;20249;-69
2021/11/27 00:07:53;;;;;;;0.23;0.23;;;8.60;85.10;;;;;;5051740;28;20281;-69
2021/11/27 00:10:22;;;;;;;0.83;0.30;;;8.70;84.80;;;;;;5047131;28;20265;-69
2021/11/27 00:12:48;;;;;;;0.40;0.40;;;8.80;84.50;;;;;;5049406;28;20197;-70
2021/11/27 00:15:16;;;;;;;0.53;0.50;;;9.00;84.40;;;;;;5049528;28;20199;-70
2021/11/27 00:17:42;;;;;;;0.40;0.40;;;9.10;83.50;;;;;;5055480;28;20945;-70
2021/11/27 00:20:12;;;;;;;1.35;0.20;;;9.20;83.50;;;;;;5050215;28;20203;-70
2021/11/27 00:22:39;;;;;;;0.20;0.20;;;9.30;82.70;;;;;;5050314;28;20275;-70
2021/11/27 00:25:06;;;;;;;0.20;0.20;;;9.60;82.10;;;;;;5044379;28;20270;-70
2021/11/27 00:27:32;;;;;;;0.17;0.17;;;9.80;81.90;;;;;;5055492;28;20586;-70
2021/11/27 00:29:59;;;;;;;0.20;0.20;;;9.90;81.40;;;;;;5045451;28;20191;-70
2021/11/27 00:32:24;;;;;;;0.98;0.20;;;10.00;80.50;;;;;;5043458;28;20740;-70
2021/11/27 00:34:50;;;;;;;0.55;0.20;;;10.10;80.30;;;;;;5054215;28;20241;-70
2021/11/27 00:37:17;;;;;;;0.20;0.20;;;10.30;80.10;;;;;;5044373;28;20224;-70
2021/11/27 00:39:44;;;;;;;0.25;0.15;;;10.40;79.30;;;;;;5046414;28;20188;-70
2021/11/27 00:42:10;;;;;;;0.20;0.20;;;10.60;79.00;;;;;;5044105;28;20212;-70
2021/11/27 00:44:36;;;;;;;0.15;0.15;;;10.80;78.20;;;;;;5058096;28;20180;-69
2021/11/27 00:47:02;;;;;;;0.20;0.20;;;10.90;78.60;;;;;;5048235;28;20188;-69
2021/11/27 00:49:28;;;;;;;0.20;0.20;;;10.90;78.40;;;;;;5053440;28;20178;-69
2021/11/27 00:51:53;;;;;;;0.10;0.10;;;10.90;78.50;;;;;;5053633;28;20547;-70
2021/11/27 00:54:22;;;;;;;0.30;0.30;;;10.90;77.70;;;;;;5052209;28;21000;-69
2021/11/27 00:56:49;;;;;;;0.20;0.20;;;10.90;78.20;;;;;;5047559;28;20314;-69
2021/11/27 00:59:15;;;;;;;0.20;0.20;;;10.90;78.60;;;;;;5049024;28;20286;-69
2021/11/27 01:01:43;;;;;;;0.90;0.20;;;10.90;78.20;;;;;;5049669;28;20285;-69
2021/11/27 01:04:09;;;;;;;0.20;0.20;;;11.00;78.40;;;;;;5048403;28;20195;-69
2021/11/27 01:06:35;;;;;;;0.10;0.10;;;11.00;77.80;;;;;;5051824;28;20268;-69
2021/11/27 01:09:06;;;;;;;0.28;0.28;;;11.00;78.20;;;;;;5044650;28;20270;-69
2021/11/27 01:11:40;;;;;;;0.20;0.20;;;11.10;78.20;;;;;;5053633;28;20203;-69
2021/11/27 01:14:11;;;;;;;0.20;0.20;;;11.10;77.90;;;;;;5044557;28;20213;-70
2021/11/27 01:16:40;;;;;;;0.10;0.10;;;11.10;77.70;;;;;;5041075;28;20188;-68
2021/11/27 01:19:09;;;;;;;0.17;0.17;;;11.10;77.50;;;;;;5046998;28;20184;-69
2021/11/27 01:21:38;;;;;;;0.20;0.20;;;11.20;77.60;;;;;;5049617;28;20215;-69
2021/11/27 01:24:08;;;;;;;0.20;0.20;;;11.30;77.60;;;;;;5045383;28;20187;-69
2021/11/27 01:26:35;;;;;;;0.20;0.20;;;11.40;77.70;;;;;;5053228;28;20958;-69
2021/11/27 01:29:01;;;;;;;0.20;0.20;;;11.30;77.10;;;;;;5057067;28;20232;-70
2021/11/27 01:31:27;;;;;;;0.20;0.20;;;11.40;77.40;;;;;;5043640;28;20187;-70
2021/11/27 01:33:53;;;;;;;0.35;0.30;;;11.30;77.00;;;;;;5053631;28;20191;-69
2021/11/27 01:36:19;;;;;;;0.20;0.20;;;11.40;77.40;;;;;;5052281;28;20191;-69
2021/11/27 01:38:45;;;;;;;0.17;0.17;;;11.40;76.90;;;;;;5051525;28;20194;-69
2021/11/27 01:41:11;;;;;;;0.30;0.30;;;11.40;77.00;;;;;;5050066;28;21152;-70
2021/11/27 01:43:37;;;;;;;0.75;0.10;;;11.40;76.20;;;;;;5051245;28;21022;-70
2021/11/27 01:46:05;;;;;;;0.30;0.30;;;11.50;77.10;;;;;;5056450;28;20191;-69
2021/11/27 01:48:30;;;;;;;0.30;0.30;;;11.60;76.60;;;;;;5054995;28;20214;-69
2021/11/27 01:51:04;;;;;;;0.20;0.20;;;11.60;76.10;;;;;;5052811;28;20222;-69
2021/11/27 01:53:34;;;;;;;0.10;0.10;;;11.60;76.00;;;;;;5052275;28;20250;-69
2021/11/27 01:56:03;;;;;;;0.10;0.10;;;11.70;75.50;;;;;;5059486;28;20210;-70
2021/11/27 01:58:31;;;;;;;0.77;0.38;;;11.80;75.70;;;;;;5056227;28;20963;-70
2021/11/27 02:01:06;;;;;;;0.10;0.10;;;11.80;75.70;;;;;;5054789;28;20236;-70
2021/11/27 02:03:32;;;;;;;0.20;0.20;;;11.80;75.40;;;;;;5047896;28;20175;-69
2021/11/27 02:05:58;;;;;;;0.20;0.20;;;11.90;75.60;;;;;;5056274;28;20171;-69
2021/11/27 02:08:25;;;;;;;0.20;0.20;;;11.90;75.60;;;;;;5053293;28;20697;-70
2021/11/27 02:10:53;;;;;;;0.20;0.20;;;11.90;75.50;;;;;;5052577;28;20183;-70
2021/11/27 02:13:19;;;;;;;0.20;0.20;;;11.90;74.70;;;;;;5056567;28;20191;-70
2021/11/27 02:15:45;;;;;;;0.25;0.20;;;12.00;74.90;;;;;;5050469;28;20178;-70
2021/11/27 02:18:10;;;;;;;0.52;0.22;;;12.00;74.90;;;;;;5053152;28;20610;-70
2021/11/27 02:20:41;;;;;;;0.20;0.20;;;12.00;74.60;;;;;;5055629;28;20193;-71
2021/11/27 02:23:07;;;;;;;0.17;0.17;;;12.00;74.60;;;;;;5046297;28;20266;-69
2021/11/27 02:25:34;;;;;;;0.10;0.10;;;12.00;74.60;;;;;;5044971;28;20183;-69
2021/11/27 02:28:00;;;;;;;0.10;0.10;;;12.00;74.00;;;;;;5048333;28;20199;-70
2021/11/27 02:30:27;;;;;;;1.25;0.28;;;12.10;74.20;;;;;;5052497;28;20199;-69
2021/11/27 02:32:53;;;;;;;0.30;0.30;;;12.10;74.10;;;;;;5047884;28;20639;-69
2021/11/27 02:35:19;;;;;;;0.20;0.20;;;12.10;74.10;;;;;;5052051;28;20194;-70
2021/11/27 02:37:45;;;;;;;0.20;0.20;;;12.10;74.00;;;;;;5053873;28;20171;-70
2021/11/27 02:40:12;;;;;;;0.20;0.20;;;12.20;73.90;;;;;;5051532;28;20186;-69
2021/11/27 02:42:39;;;;;;;0.75;0.20;;;12.20;73.90;;;;;;5051573;28;20224;-70
2021/11/27 02:45:07;;;;;;;0.20;0.20;;;12.20;74.10;;;;;;5050667;28;20179;-70
2021/11/27 02:47:33;;;;;;;1.55;0.20;;;12.20;74.10;;;;;;5051273;28;20187;-70
2021/11/27 02:50:01;;;;;;;0.20;0.20;;;12.20;73.80;;;;;;5054893;28;20197;-70
2021/11/27 02:52:29;;;;;;;0.20;0.20;;;12.20;73.80;;;;;;5052151;28;20192;-70
2021/11/27 02:54:58;;;;;;;0.20;0.20;;;12.20;73.60;;;;;;5052739;28;20184;-70
2021/11/27 02:57:27;;;;;;;0.77;0.20;;;12.20;73.50;;;;;;5056347;28;20188;-69
2021/11/27 02:59:52;;;;;;;0.20;0.20;;;12.20;73.40;;;;;;5052063;28;20271;-69
2021/11/27 03:02:18;;;;;;;0.20;0.20;;;12.20;73.20;;;;;;5048923;28;20893;-70
2021/11/27 03:04:48;;;;;;;0.17;0.17;;;12.20;73.30;;;;;;5050213;28;20194;-70
2021/11/27 03:07:15;;;;;;;0.10;0.10;;;12.30;73.00;;;;;;5050716;28;20187;-69
2021/11/27 03:09:41;;;;;;;0.20;0.20;;;12.30;73.10;;;;;;5051271;28;20248;-70
2021/11/27 03:12:07;;;;;;;0.75;0.30;;;12.30;73.00;;;;;;5050629;28;20184;-69
2021/11/27 03:14:33;;;;;;;0.10;0.10;;;12.30;73.60;;;;;;5052419;28;20184;-70
2021/11/27 03:17:00;;;;;;;1.45;0.20;;;12.30;73.40;;;;;;5055262;28;20652;-69
2021/11/27 03:19:27;;;;;;;0.40;0.40;;;12.30;73.40;;;;;;5054125;28;20229;-71
2021/11/27 03:21:53;;;;;;;0.30;0.30;;;12.10;74.00;;;;;;5051343;28;20299;-71
2021/11/27 03:24:19;;;;;;;0.30;0.30;;;12.00;74.20;;;;;;5047782;28;20188;-69
2021/11/27 03:26:45;;;;;;;0.38;0.38;;;11.90;74.10;;;;;;5050622;28;20187;-71
2021/11/27 03:29:11;;;;;;;0.52;0.22;;;11.90;74.40;;;;;;5048253;28;20210;-69
2021/11/27 03:31:37;;;;;;;0.32;0.20;;;11.90;74.30;;;;;;5049710;28;20218;-69
2021/11/27 03:34:03;;;;;;;0.20;0.20;;;11.80;74.00;;;;;;5051979;28;20187;-71
2021/11/27 03:36:29;;;;;;;0.10;0.10;;;11.80;74.20;;;;;;5047797;28;20187;-70
2021/11/27 03:38:55;;;;;;;0.63;0.25;;;11.70;74.30;;;;;;5044966;28;20176;-71
2021/11/27 03:41:20;;;;;;;0.20;0.20;;;11.80;74.30;;;;;;5049449;28;20273;-71
2021/11/27 03:43:47;;;;;;;0.30;0.30;;;11.70;74.60;;;;;;5043496;28;20191;-71
2021/11/27 03:46:13;;;;;;;0.20;0.20;;;11.70;74.50;;;;;;5053936;28;20179;-71
2021/11/27 03:48:42;;;;;;;0.13;0.13;;;11.70;74.30;;;;;;5051509;28;20673;-70
2021/11/27 03:51:12;;;;;;;0.68;0.20;;;11.70;74.70;;;;;;5051175;28;20187;-70
2021/11/27 03:53:39;;;;;;;0.20;0.20;;;11.70;74.50;;;;;;5051976;28;20274;-71
2021/11/27 03:56:08;;;;;;;0.20;0.20;;;11.70;74.70;;;;;;5052306;28;20183;-70
2021/11/27 03:58:35;;;;;;;1.83;0.40;;;11.70;74.70;;;;;;5045963;28;20215;-70
2021/11/27 04:01:03;;;;;;;0.20;0.20;;;11.80;74.80;;;;;;5052829;28;20250;-70
2021/11/27 04:03:29;;;;;;;0.20;0.20;;;11.80;74.60;;;;;;5047782;28;20176;-70
2021/11/27 04:06:00;;;;;;;0.20;0.20;;;11.80;74.60;;;;;;5052484;28;20196;-70
2021/11/27 04:08:26;;;;;;;0.17;0.17;;;11.80;74.70;;;;;;5050743;28;20582;-70
2021/11/27 04:10:53;;;;;;;0.95;0.30;;;11.90;74.40;;;;;;5051877;28;20193;-70
2021/11/27 04:13:19;;;;;;;0.22;0.22;;;11.90;74.20;;;;;;5054678;28;20217;-70
2021/11/27 04:15:45;;;;;;;0.10;0.10;;;11.90;74.30;;;;;;5051012;28;20646;-71
2021/11/27 04:18:11;;;;;;;0.10;0.10;;;11.90;74.10;;;;;;5049682;28;20283;-70
2021/11/27 04:20:37;;;;;;;0.20;0.20;;;12.00;73.90;;;;;;5055027;28;20206;-71
2021/11/27 04:23:03;;;;;;;0.63;0.22;;;12.00;74.00;;;;;;5046992;28;20215;-71
2021/11/27 04:25:29;;;;;;;0.20;0.20;;;12.10;74.10;;;;;;5048238;28;20175;-71
2021/11/27 04:27:56;;;;;;;0.20;0.20;;;12.10;73.90;;;;;;5053569;28;20616;-71
2021/11/27 04:30:25;;;;;;;0.30;0.30;;;12.10;74.00;;;;;;5041462;28;20180;-71
2021/11/27 04:32:51;;;;;;;0.65;0.20;;;12.10;73.80;;;;;;5048867;28;20688;-71
2021/11/27 04:35:18;;;;;;;0.20;0.20;;;12.20;73.90;;;;;;5049394;28;20179;-71
2021/11/27 04:37:45;;;;;;;0.30;0.30;;;12.10;73.80;;;;;;5050340;28;20273;-71
2021/11/27 04:40:12;;;;;;;0.40;0.30;;;12.20;73.70;;;;;;5048340;28;20262;-71
2021/11/27 04:42:37;;;;;;;0.32;0.32;;;12.20;73.50;;;;;;5049223;28;20628;-71
2021/11/27 04:45:05;;;;;;;0.20;0.20;;;12.20;73.60;;;;;;5049424;28;20187;-71
2021/11/27 04:47:31;;;;;;;0.20;0.20;;;12.20;73.40;;;;;;5044727;28;20184;-71
2021/11/27 04:49:57;;;;;;;0.25;0.25;;;12.30;73.20;;;;;;5047010;28;20654;-71
2021/11/27 04:52:25;;;;;;;0.20;0.20;;;12.30;73.30;;;;;;5045659;28;20189;-71
2021/11/27 04:54:51;;;;;;;0.50;0.43;;;12.30;73.40;;;;;;5044355;28;20192;-71
2021/11/27 04:57:18;;;;;;;0.30;0.30;;;12.30;73.80;;;;;;5048481;28;20184;-71
2021/11/27 04:59:44;;;;;;;0.75;0.30;;;12.20;73.70;;;;;;5050320;28;20199;-71
2021/11/27 05:02:10;;;;;;;0.20;0.20;;;12.20;73.60;;;;;;5042042;28;20596;-71
2021/11/27 05:04:37;;;;;;;0.30;0.30;;;12.20;73.80;;;;;;5045738;28;20190;-71
2021/11/27 05:07:03;;;;;;;0.20;0.20;;;12.20;73.90;;;;;;5043877;28;20271;-70
2021/11/27 05:09:29;;;;;;;0.32;0.32;;;12.20;73.90;;;;;;5045501;28;20223;-71
2021/11/27 05:11:55;;;;;;;3.30;0.25;;;12.20;74.00;;;;;;5042048;28;20277;-71
2021/11/27 05:14:21;;;;;;;0.20;0.20;;;12.20;73.70;;;;;;5042806;28;20653;-70
2021/11/27 05:16:46;;;;;;;3.40;0.20;;;12.20;73.70;;;;;;5043334;28;20182;-70
2021/11/27 05:19:12;;;;;;;0.20;0.20;;;12.20;73.50;;;;;;5047859;28;20230;-70
2021/11/27 05:21:38;;;;;;;0.20;0.20;;;12.20;73.50;;;;;;5052253;28;20744;-71
2021/11/27 05:24:05;;;;;;;0.35;0.35;;;12.30;73.30;;;;;;5043933;28;20182;-71
2021/11/27 05:26:31;;;;;;;0.30;0.30;;;12.30;73.20;;;;;;5047346;28;20180;-71
2021/11/27 05:28:56;;;;;;;0.20;0.20;;;12.30;73.30;;;;;;5049032;28;20278;-71
2021/11/27 05:31:23;;;;;;;0.20;0.20;;;12.30;73.20;;;;;;5042935;28;20194;-71
2021/11/27 05:36:27;;;;;;;0.20;0.20;;;12.30;73.30;;;;;;5045077;28;20199;-71
2021/11/27 05:38:53;;;;;;;1.85;0.30;;;12.30;73.50;;;;;;5048041;28;20182;-71
2021/11/27 05:41:19;;;;;;;0.20;0.20;;;12.30;73.60;;;;;;5046934;28;20180;-71
2021/11/27 05:43:45;;;;;;;0.25;0.25;;;12.20;73.70;;;;;;5045347;28;20249;-70
2021/11/27 05:46:11;;;;;;;0.20;0.20;;;12.30;73.60;;;;;;5046528;28;20680;-70
2021/11/27 05:48:37;;;;;;;0.30;0.22;;;12.30;73.60;;;;;;5050287;28;20191;-71
2021/11/27 05:51:04;;;;;;;1.08;0.30;;;12.30;73.80;;;;;;5047646;28;20176;-71
2021/11/27 05:53:30;;;;;;;0.20;0.20;;;12.30;73.60;;;;;;5048654;28;20186;-71
2021/11/27 05:55:56;;;;;;;0.40;0.30;;;12.30;73.80;;;;;;5048910;28;20669;-71
2021/11/27 05:58:22;;;;;;;0.20;0.20;;;12.30;73.60;;;;;;5051805;28;20195;-71
2021/11/27 06:00:49;;;;;;;0.38;0.38;;;12.30;73.80;;;;;;5044830;28;20188;-71
2021/11/27 06:03:15;;;;;;;0.20;0.20;;;12.40;73.80;;;;;;5047345;28;20218;-71
2021/11/27 06:05:41;;;;;;;0.30;0.30;;;12.40;73.80;;;;;;5051823;28;20574;-71
2021/11/27 06:08:07;;;;;;;0.38;0.30;;;12.40;73.80;;;;;;5044988;28;20184;-72
2021/11/27 06:10:34;;;;;;;0.10;0.10;;;12.50;73.80;;;;;;5048318;28;20182;-72
2021/11/27 06:13:02;;;;;;;0.20;0.20;;;12.40;73.80;;;;;;5048160;28;20262;-72
2021/11/27 06:15:27;;;;;;;0.20;0.20;;;12.50;73.80;;;;;;5051094;28;20180;-72
2021/11/27 06:17:53;;;;;;;0.20;0.20;;;12.50;73.50;;;;;;5042842;28;20190;-72
2021/11/27 06:20:20;;;;;;;0.25;0.25;;;12.60;73.40;;;;;;5047077;28;20271;-71
2021/11/27 06:22:46;;;;;;;0.30;0.30;;;12.70;73.30;;;;;;5052230;28;20215;-71
2021/11/27 06:25:12;;;;;;;0.20;0.20;;;12.80;73.00;;;;;;5045352;28;20187;-72
2021/11/27 06:27:38;;;;;;;0.20;0.20;;;12.90;72.70;;;;;;5046897;28;20186;-71
2021/11/27 06:30:08;;;;;;;0.20;0.20;;;13.00;72.60;;;;;;5056848;28;20261;-72
2021/11/27 06:32:35;;;;;;;0.20;0.20;;;13.30;71.80;;;;;;5047822;28;20719;-72
2021/11/27 06:35:02;;;;;;;0.30;0.30;;;13.50;70.90;;;;;;5050459;28;20232;-70
2021/11/27 06:37:28;;;;;;;0.10;0.10;;;13.80;71.10;;;;;;5043313;28;20952;-71
2021/11/27 06:39:54;;;;;;;0.20;0.20;;;14.00;70.20;;;;;;5057250;28;20179;-71
2021/11/27 06:42:20;;;;;;;1.63;0.40;;;14.10;70.20;;;;;;5055118;28;20288;-71
2021/11/27 06:44:49;;;;;;;0.28;0.28;;;14.40;69.50;;;;;;5056167;28;20672;-71
2021/11/27 06:47:16;;;;;;;0.85;0.30;;;14.70;69.10;;;;;;5051586;28;20186;-71
2021/11/27 06:49:43;;;;;;;1.25;0.30;;;15.00;68.50;;;;;;5058519;28;20187;-70
2021/11/27 06:52:09;;;;;;;0.22;0.22;;;15.20;67.50;;;;;;5049886;28;20191;-71
2021/11/27 06:54:36;;;;;;;0.20;0.20;;;15.40;67.20;;;;;;5049561;28;20184;-71
2021/11/27 06:57:01;;;;;;;0.30;0.30;;;15.30;67.00;;;;;;5054665;28;20367;-71
2021/11/27 06:59:27;;;;;;;0.40;0.30;;;15.40;67.30;;;;;;5051335;28;20269;-71
2021/11/27 07:01:53;;;;;;;0.60;0.60;;;15.60;66.80;;;;;;5051916;28;20207;-71
2021/11/27 07:04:19;;;;;;;0.28;0.28;;;15.70;67.40;;;;;;5053539;28;20190;-71
2021/11/27 07:06:46;;;;;;;0.47;0.47;;;15.70;66.10;;;;;;5057678;28;20979;-71
2021/11/27 07:09:12;;;;;;;0.30;0.30;;;15.60;66.90;;;;;;5055948;28;20184;-71
2021/11/27 07:11:38;;;;;;;0.77;0.32;;;15.50;66.30;;;;;;5048246;28;20236;-71
2021/11/27 07:14:03;;;;;;;0.30;0.30;;;15.40;66.80;;;;;;5055466;28;20664;-71
2021/11/27 07:16:29;;;;;;;0.30;0.30;;;15.50;67.30;;;;;;5051594;28;20776;-71
2021/11/27 07:18:55;;;;;;;0.30;0.30;;;15.60;67.50;;;;;;5052930;28;20303;-71
2021/11/27 07:21:21;;;;;;;0.30;0.30;;;15.60;67.10;;;;;;5048144;28;20207;-74
2021/11/27 07:23:47;;;;;;;0.30;0.30;;;15.50;66.70;;;;;;5052426;28;20220;-71
2021/11/27 07:26:13;;;;;;;0.30;0.30;;;15.50;67.20;;;;;;5052592;28;20218;-71
2021/11/27 07:28:39;;;;;;;0.85;0.52;;;15.50;67.00;;;;;;5050848;28;20176;-71
2021/11/27 07:31:05;;;;;;;0.65;0.65;;;15.40;66.90;;;;;;5046763;28;20182;-71
2021/11/27 07:33:31;;;;;;;0.32;0.25;;;15.30;67.30;;;;;;5050522;28;20182;-70
2021/11/27 07:35:57;;;;;;;0.40;0.40;;;15.30;67.20;;;;;;5050846;28;20714;-72
2021/11/27 07:38:23;;;;;;;0.68;0.68;;;15.40;67.60;;;;;;5045272;28;20194;-70
2021/11/27 07:40:49;;;;;;;1.65;0.50;;;15.60;67.80;;;;;;5050490;28;20669;-72
2021/11/27 07:43:15;;;;;;;1.10;0.68;;;16.00;67.80;;;;;;5051582;28;20220;-70
2021/11/27 07:45:41;;;;;;;0.60;0.60;;;16.50;67.60;;;;;;5046880;28;20214;-71
2021/11/27 07:48:06;;;;;;;1.55;0.60;;;17.10;66.50;;;;;;5049322;28;20306;-71
2021/11/27 07:50:33;;;;;;;0.98;0.90;;;17.60;65.40;;;;;;5045680;28;20238;-70
2021/11/27 07:52:59;;;;;;;0.45;0.45;;;18.20;65.00;;;;;;5048926;28;20179;-70
2021/11/27 07:55:26;;;;;;;0.60;0.60;;;18.70;63.90;;;;;;5045971;28;20184;-70
2021/11/27 07:57:52;;;;;;;0.55;0.55;;;19.20;61.20;;;;;;5046656;28;20851;-71
2021/11/27 08:00:18;;;;;;;0.50;0.50;;;19.40;61.80;;;;;;5052897;28;20206;-71
2021/11/27 08:02:43;;;;;;;0.45;0.45;;;19.40;61.40;;;;;;5048211;28;20222;-71
2021/11/27 08:05:10;;;;;;;1.00;0.50;;;19.40;60.80;;;;;;5046197;28;20248;-71
2021/11/27 08:07:36;;;;;;;0.40;0.40;;;19.40;61.60;;;;;;5051217;28;20191;-71
2021/11/27 08:10:07;;;;;;;0.82;0.80;;;19.30;60.40;;;;;;5048094;28;20179;-71
2021/11/27 08:12:33;;;;;;;0.60;0.60;;;19.20;61.40;;;;;;5052481;28;20194;-71
2021/11/27 08:14:59;;;;;;;0.50;0.50;;;19.10;61.80;;;;;;5057984;28;20179;-71
2021/11/27 08:17:25;;;;;;;0.47;0.47;;;19.10;61.70;;;;;;5048056;28;20205;-72
2021/11/27 08:19:51;;;;;;;1.58;0.57;;;19.10;61.30;;;;;;5050630;28;20186;-70
2021/11/27 08:22:17;;;;;;;0.45;0.45;;;19.00;61.50;;;;;;5042699;28;20222;-71
2021/11/27 08:24:42;;;;;;;0.30;0.30;;;19.00;61.20;;;;;;5043893;28;20532;-71
2021/11/27 08:27:10;;;;;;;0.80;0.60;;;19.00;61.60;;;;;;5046683;28;20179;-70
2021/11/27 08:29:36;;;;;;;0.50;0.50;;;19.00;62.00;;;;;;5043903;28;20670;-71
2021/11/27 08:32:02;;;;;;;0.50;0.50;;;19.10;60.50;;;;;;5043018;28;20192;-70
2021/11/27 08:34:28;;;;;;;0.30;0.30;;;18.90;59.10;;;;;;5042029;28;20179;-70
2021/11/27 08:36:54;;;;;;;0.43;0.40;;;18.70;61.60;;;;;;5041482;28;20696;-70
2021/11/27 08:39:20;;;;;;;0.85;0.30;;;18.60;60.20;;;;;;5046911;28;20192;-70
2021/11/27 08:41:47;;;;;;;0.40;0.40;;;18.30;61.40;;;;;;5049314;28;20216;-72
2021/11/27 08:44:13;;;;;;;0.40;0.40;;;18.10;61.70;;;;;;5044013;28;20213;-70
2021/11/27 08:46:39;;;;;;;1.55;0.47;;;18.10;62.40;;;;;;5045463;28;20191;-73
2021/11/27 08:49:05;;;;;;;0.22;0.22;;;18.10;62.60;;;;;;5050698;28;20346;-70
2021/11/27 08:51:30;;;;;;;0.40;0.40;;;18.00;60.40;;;;;;5049433;28;20244;-71
2021/11/27 08:53:56;;;;;;;0.30;0.30;;;17.70;62.20;;;;;;5044351;28;20178;-70
2021/11/27 08:56:22;;;;;;;0.65;0.30;;;17.50;62.60;;;;;;5050244;28;20692;-70
2021/11/27 08:58:48;;;;;;;0.63;0.40;;;17.30;62.80;;;;;;5049248;28;20629;-71
2021/11/27 09:01:14;;;;;;;0.40;0.40;;;17.20;62.20;;;;;;5052091;28;20277;-73
2021/11/27 09:03:42;;;;;;;0.40;0.40;;;17.20;63.60;;;;;;5046069;28;20278;-73
2021/11/27 09:06:08;;;;;;;0.60;0.60;;;17.10;62.30;;;;;;5048379;28;20268;-73
2021/11/27 09:08:36;;;;;;;0.30;0.30;;;16.90;63.50;;;;;;5050207;28;20195;-73
2021/11/27 09:11:05;;;;;;;0.57;0.57;;;16.80;62.40;;;;;;5048769;28;20207;-73
2021/11/27 09:13:31;;;;;;;0.40;0.40;;;16.50;62.90;;;;;;5050443;28;20191;-73
2021/11/27 09:15:56;;;;;;;0.40;0.40;;;16.40;62.80;;;;;;5053197;28;20558;-73
2021/11/27 09:18:22;;;;;;;1.40;0.30;;;16.10;63.50;;;;;;5048087;28;20209;-73
2021/11/27 09:20:48;;;;;;;0.40;0.40;;;16.10;64.40;;;;;;5042526;28;20234;-73
2021/11/27 09:23:14;;;;;;;0.40;0.40;;;16.20;63.90;;;;;;5043723;28;20218;-73
2021/11/27 09:25:40;;;;;;;0.60;0.50;;;16.40;63.70;;;;;;5049342;28;20184;-73
2021/11/27 09:28:05;;;;;;;0.30;0.30;;;16.70;64.60;;;;;;5051868;28;20183;-73
2021/11/27 09:30:32;;;;;;;0.40;0.40;;;17.10;62.80;;;;;;5052199;28;20735;-73
2021/11/27 09:32:58;;;;;;;0.57;0.57;;;17.40;61.90;;;;;;5051253;28;20781;-73
2021/11/27 09:35:24;;;;;;;0.40;0.40;;;17.70;62.40;;;;;;5044477;28;20187;-75
2021/11/27 09:37:50;;;;;;;0.32;0.32;;;17.80;61.60;;;;;;5048256;28;20188;-73
2021/11/27 09:40:17;;;;;;;0.90;0.40;;;17.60;61.10;;;;;;5048738;28;20195;-73
2021/11/27 09:42:48;;;;;;;0.40;0.40;;;17.40;60.90;;;;;;5052196;28;20210;-73
2021/11/27 09:45:14;;;;;;;0.40;0.40;;;17.30;62.10;;;;;;5057242;28;20191;-71
2021/11/27 09:47:44;;;;;;;0.40;0.40;;;17.60;61.30;;;;;;5049964;28;20192;-72
2021/11/27 09:50:10;;;;;;;0.75;0.50;;;18.00;62.30;;;;;;5046267;28;20180;-73
2021/11/27 09:52:36;;;;;;;0.55;0.55;;;18.50;60.70;;;;;;5051254;28;20237;-72
2021/11/27 09:55:03;;;;;;;0.40;0.40;;;18.80;59.80;;;;;;5054667;28;20263;-72
2021/11/27 09:57:29;;;;;;;0.73;0.40;;;19.20;58.40;;;;;;5051112;28;20184;-73
2021/11/27 09:59:55;;;;;;;0.73;0.30;;;19.60;59.00;;;;;;5054766;28;20198;-73
2021/11/27 10:02:23;;;;;;;0.40;0.40;;;20.20;57.10;;;;;;5049646;28;20221;-72
2021/11/27 10:04:56;;;;;;;0.40;0.40;;;20.50;56.80;;;;;;5055282;28;20586;-72
2021/11/27 10:07:22;;;;;;;0.30;0.30;;;20.40;55.80;;;;;;5056310;28;20884;-72
2021/11/27 10:09:50;;;;;;;0.75;0.40;;;20.10;55.70;;;;;;5057972;28;20179;-72
2021/11/27 10:12:18;;;;;;;0.30;0.30;;;19.90;58.00;;;;;;5056188;28;20213;-73
2021/11/27 10:14:43;;;;;;;0.30;0.30;;;20.10;56.90;;;;;;5055693;28;20175;-71
2021/11/27 10:17:12;;;;;;;0.40;0.40;;;20.20;56.50;;;;;;5052452;28;20916;-72
2021/11/27 10:19:43;;;;;;;1.95;0.40;;;20.40;58.80;;;;;;5049057;28;20194;-73
2021/11/27 10:22:12;;;;;;;1.45;0.40;;;21.00;55.70;;;;;;5054154;28;20211;-73
2021/11/27 10:24:38;;;;;;;0.80;0.40;;;21.50;56.90;;;;;;5052543;28;20241;-75
2021/11/27 10:27:16;;;;;;;0.80;0.43;;;22.20;54.50;;;;;;5053486;28;20190;-75
2021/11/27 10:29:42;;;;;;;0.40;0.40;;;22.80;53.30;;;;;;5049378;28;20182;-75
2021/11/27 10:32:16;;;;;;;0.55;0.40;;;23.60;54.60;;;;;;5054983;28;20719;-75
2021/11/27 10:34:55;;;;;;;0.55;0.40;;;24.00;51.10;;;;;;5055066;28;20190;-75
2021/11/27 10:37:33;;;;;;;0.40;0.40;;;23.90;50.10;;;;;;5050193;28;20367;-75
2021/11/27 10:40:05;;;;;;;1.95;0.30;;;23.80;52.20;;;;;;5049822;28;20195;-74
2021/11/27 10:42:32;;;;;;;0.32;0.32;;;24.00;50.90;;;;;;5054522;28;20256;-75
2021/11/27 10:45:14;;;;;;;0.40;0.35;;;24.40;52.60;;;;;;5058449;28;20171;-74
2021/11/27 10:47:41;;;;;;;0.60;0.60;;;24.80;50.50;;;;;;5053618;28;20250;-75
2021/11/27 10:50:08;;;;;;;0.45;0.30;;;24.90;52.10;;;;;;5052903;28;20833;-74
2021/11/27 10:52:37;;;;;;;0.77;0.43;;;24.80;50.00;;;;;;5051511;28;20195;-75
2021/11/27 10:55:16;;;;;;;0.40;0.40;;;24.40;48.80;;;;;;5044791;28;20183;-74
2021/11/27 10:57:43;;;;;;;0.55;0.38;;;23.80;49.90;;;;;;5045578;28;20249;-72
2021/11/27 11:00:26;;;;;;;0.30;0.30;;;23.80;50.60;;;;;;5051793;28;20772;-73
2021/11/27 11:02:53;;;;;;;1.38;0.40;;;24.00;52.60;;;;;;5051707;28;20254;-74
2021/11/27 11:05:20;;;;;;;1.35;0.30;;;24.40;50.50;;;;;;5050146;28;21013;-77
2021/11/27 11:07:57;;;;;;;0.30;0.30;;;24.70;48.90;;;;;;5051049;28;20183;-73
2021/11/27 11:10:30;;;;;;;0.60;0.60;;;25.00;53.00;;;;;;5055562;28;20179;-74
2021/11/27 11:13:27;;;;;;;0.43;0.40;;;25.50;50.80;;;;;;5054670;28;20195;-73
2021/11/27 11:15:53;;;;;;;0.30;0.30;;;25.90;48.50;;;;;;5048091;28;20278;-73
2021/11/27 11:18:24;;;;;;;0.32;0.32;;;25.50;47.40;;;;;;5054519;28;20631;-74
2021/11/27 11:20:58;;;;;;;0.40;0.40;;;25.10;48.30;;;;;;5046470;28;20580;-72
2021/11/27 11:23:24;;;;;;;0.30;0.30;;;24.90;51.40;;;;;;5049076;28;20211;-73
2021/11/27 11:25:59;;;;;;;0.40;0.40;;;25.20;50.80;;;;;;5050910;28;20272;-73
2021/11/27 11:28:47;;;;;;;0.52;0.30;;;25.40;49.60;;;;;;5052522;28;20185;-72
2021/11/27 11:31:16;;;;;;;0.40;0.40;;;25.20;50.00;;;;;;5053354;28;20183;-71
2021/11/27 11:33:45;;;;;;;0.30;0.30;;;25.10;52.00;;;;;;5052836;28;20187;-73
2021/11/27 11:36:15;;;;;;;1.98;0.30;;;25.30;50.50;;;;;;5056120;28;20171;-73
2021/11/27 11:38:44;;;;;;;0.40;0.30;;;25.10;48.30;;;;;;5054101;28;20183;-72
2021/11/27 11:41:11;;;;;;;0.30;0.30;;;24.80;49.10;;;;;;5043686;28;20578;-72
2021/11/27 11:43:37;;;;;;;0.40;0.30;;;24.90;51.70;;;;;;5049219;28;20220;-73
2021/11/27 11:46:04;;;;;;;0.25;0.25;;;25.10;51.40;;;;;;5055204;28;20175;-72
2021/11/27 11:48:31;;;;;;;0.30;0.30;;;25.30;50.70;;;;;;5054443;28;20186;-72
2021/11/27 11:51:20;;;;;;;1.50;0.38;;;25.60;51.30;;;;;;5050596;28;20179;-72
2021/11/27 11:53:52;;;;;;;0.20;0.20;;;25.70;49.70;;;;;;5048264;28;20179;-73
2021/11/27 11:56:19;;;;;;;0.30;0.30;;;25.90;49.30;;;;;;5049500;28;20190;-72
2021/11/27 11:58:47;;;;;;;0.20;0.20;;;25.90;49.90;;;;;;5047844;28;20200;-72
2021/11/27 12:01:19;;;;;;;0.30;0.30;;;26.30;50.30;;;;;;5053501;28;20175;-72
2021/11/27 12:03:48;;;;;;;0.65;0.30;;;26.80;49.90;;;;;;5044105;28;20187;-74
2021/11/27 12:06:21;;;;;;;0.30;0.30;;;27.50;46.60;;;;;;5050038;28;20191;-74
2021/11/27 12:08:52;;;;;;;1.17;0.50;;;27.40;46.70;;;;;;5047046;28;20186;-74
2021/11/27 12:11:57;;;;;;;1.30;0.30;;;27.20;49.60;;;;;;5051132;28;20785;-75
2021/11/27 12:14:23;;;;;;;0.20;0.20;;;27.40;46.00;;;;;;5047086;28;20582;-75
2021/11/27 12:17:03;;;;;;;0.30;0.30;;;26.80;47.10;;;;;;5048448;28;20187;-76
2021/11/27 12:19:36;;;;;;;0.55;0.30;;;26.70;47.80;;;;;;5049992;28;20203;-75
2021/11/27 12:22:20;;;;;;;0.10;0.10;;;26.50;46.20;;;;;;5053931;28;20943;-75
2021/11/27 12:25:28;;;;;;;0.50;0.30;;;26.10;45.60;;;;;;5048487;28;20271;-76
2021/11/27 12:28:02;;;;;;;0.20;0.20;;;25.60;45.60;;;;;;5006211;28;20628;-75
2021/11/27 12:30:44;;;;;;;2.63;0.30;;;25.10;49.70;;;;;;5005512;28;20235;-77
2021/11/27 12:33:42;;;;;;;0.20;0.20;;;25.00;47.10;;;;;;5008361;28;20188;-76
2021/11/27 12:36:24;;;;;;;0.30;0.30;;;24.30;47.20;;;;;;5005520;28;20185;-77
2021/11/27 12:39:02;;;;;;;0.20;0.20;;;23.60;49.00;;;;;;5004810;28;20193;-74
2021/11/27 12:41:31;;;;;;;0.20;0.20;;;22.70;49.10;;;;;;5011956;28;20217;-76
2021/11/27 12:44:16;;;;;;;0.25;0.25;;;22.00;50.50;;;;;;5002865;28;20235;-76
2021/11/27 12:46:43;;;;;;;0.50;0.38;;;21.40;52.00;;;;;;5011082;28;20188;-78
2021/11/27 12:49:09;;;;;;;1.40;0.30;;;21.40;53.10;;;;;;5012170;28;20646;-76
2021/11/27 12:51:35;;;;;;;0.30;0.30;;;21.40;53.40;;;;;;5006467;28;20225;-75
2021/11/27 12:54:01;;;;;;;0.40;0.40;;;21.20;52.90;;;;;;5010451;28;20188;-77